Elsmere, Kentucky
Current Conditions -  °F | °C
As of 8:52 AM on Tuesday 27 Jan 2015 (Local Time) from KCVG Reporting Station
Broken Clouds Broken Clouds  
Wind Chill: 12°   Ceiling: 13000
Heat Index: 21°   Visibility: 8mi
Dew Point: 13°   Wind: 7mph
Humidity: 71%   Direction: 60°ENE
Pressure: 30.03"   Gusts: NA
Location:  39.017°N, 84.607°W
Report Text: KCVG 271352Z 06006KT 8SM FEW021 BKN130 M06/M11 A3003 RMK AO2 SLP179 T10611106
Loading
Personal Weather Stations






























Interactive Weather Map New forecast layout! Learn more

10-Day Weather Forecast

Advertisements
Track Severe Weather on mobile